sensor_id;sensor_type;location;lat;lon;timestamp;temperature;humidity
20325;DHT22;10320;49.482;11.256;2022-10-31T06:52:09;9.00;99.90
20325;DHT22;10320;49.482;11.256;2022-10-31T06:54:34;6.90;99.90
20325;DHT22;10320;49.482;11.256;2022-10-31T06:57:00;6.80;99.90
20325;DHT22;10320;49.482;11.256;2022-10-31T06:59:26;7.00;99.90
20325;DHT22;10320;49.482;11.256;2022-10-31T07:01:51;7.10;99.90
20325;DHT22;10320;49.482;11.256;2022-10-31T07:04:17;7.10;99.90
20325;DHT22;10320;49.482;11.256;2022-10-31T07:06:43;7.20;99.90
20325;DHT22;10320;49.482;11.256;2022-10-31T07:09:08;7.20;99.90
20325;DHT22;10320;49.482;11.256;2022-10-31T07:11:34;7.30;99.90
20325;DHT22;10320;49.482;11.256;2022-10-31T07:14:00;7.40;99.90
20325;DHT22;10320;49.482;11.256;2022-10-31T07:16:25;7.40;99.90
20325;DHT22;10320;49.482;11.256;2022-10-31T07:18:51;7.50;99.90
20325;DHT22;10320;49.482;11.256;2022-10-31T07:21:16;7.60;99.90
20325;DHT22;10320;49.482;11.256;2022-10-31T07:45:41;7.60;99.90
20325;DHT22;10320;49.482;11.256;2022-10-31T07:48:07;8.70;99.90
20325;DHT22;10320;49.482;11.256;2022-10-31T07:50:32;8.80;99.90
20325;DHT22;10320;49.482;11.256;2022-10-31T07:53:14;8.80;99.90
20325;DHT22;10320;49.482;11.256;2022-10-31T07:55:40;8.80;99.90
20325;DHT22;10320;49.482;11.256;2022-10-31T07:58:11;8.90;99.90
20325;DHT22;10320;49.482;11.256;2022-10-31T08:00:39;9.00;99.90
20325;DHT22;10320;49.482;11.256;2022-10-31T08:03:07;9.10;99.90
20325;DHT22;10320;49.482;11.256;2022-10-31T08:05:33;9.20;99.90
20325;DHT22;10320;49.482;11.256;2022-10-31T08:07:59;9.50;99.90
20325;DHT22;10320;49.482;11.256;2022-10-31T08:10:26;9.40;99.90
20325;DHT22;10320;49.482;11.256;2022-10-31T08:12:59;9.50;99.90
20325;DHT22;10320;49.482;11.256;2022-10-31T08:15:25;9.60;99.90
20325;DHT22;10320;49.482;11.256;2022-10-31T08:17:51;9.70;99.90
20325;DHT22;10320;49.482;11.256;2022-10-31T08:20:18;9.80;99.90
20325;DHT22;10320;49.482;11.256;2022-10-31T08:22:59;9.80;99.90
20325;DHT22;10320;49.482;11.256;2022-10-31T08:25:26;10.00;99.90
20325;DHT22;10320;49.482;11.256;2022-10-31T08:27:53;10.10;99.90
20325;DHT22;10320;49.482;11.256;2022-10-31T08:30:20;10.20;99.90
20325;DHT22;10320;49.482;11.256;2022-10-31T08:32:46;10.40;99.90
20325;DHT22;10320;49.482;11.256;2022-10-31T08:35:12;10.50;99.90
20325;DHT22;10320;49.482;11.256;2022-10-31T08:37:38;10.60;99.90
20325;DHT22;10320;49.482;11.256;2022-10-31T08:40:04;10.80;99.90
20325;DHT22;10320;49.482;11.256;2022-10-31T08:42:30;10.90;99.90
20325;DHT22;10320;49.482;11.256;2022-10-31T08:44:56;11.00;99.90
20325;DHT22;10320;49.482;11.256;2022-10-31T08:47:21;11.30;99.90
20325;DHT22;10320;49.482;11.256;2022-10-31T08:49:47;11.30;99.90
20325;DHT22;10320;49.482;11.256;2022-10-31T08:52:14;11.50;99.90
20325;DHT22;10320;49.482;11.256;2022-10-31T08:54:40;11.60;99.90
20325;DHT22;10320;49.482;11.256;2022-10-31T08:57:06;11.80;99.90
20325;DHT22;10320;49.482;11.256;2022-10-31T08:59:31;12.00;99.90
20325;DHT22;10320;49.482;11.256;2022-10-31T09:01:57;12.10;99.90
20325;DHT22;10320;49.482;11.256;2022-10-31T09:04:22;12.30;99.90
20325;DHT22;10320;49.482;11.256;2022-10-31T09:06:48;12.50;99.90
20325;DHT22;10320;49.482;11.256;2022-10-31T09:09:13;12.60;99.90
20325;DHT22;10320;49.482;11.256;2022-10-31T09:11:39;12.80;99.90
20325;DHT22;10320;49.482;11.256;2022-10-31T09:14:05;12.90;99.90
20325;DHT22;10320;49.482;11.256;2022-10-31T09:16:30;13.00;99.90
20325;DHT22;10320;49.482;11.256;2022-10-31T09:18:56;13.20;99.90
20325;DHT22;10320;49.482;11.256;2022-10-31T09:21:21;13.30;99.90
20325;DHT22;10320;49.482;11.256;2022-10-31T09:23:47;13.40;99.90
20325;DHT22;10320;49.482;11.256;2022-10-31T09:26:13;13.60;99.90
20325;DHT22;10320;49.482;11.256;2022-10-31T09:28:38;13.70;99.90
20325;DHT22;10320;49.482;11.256;2022-10-31T09:31:04;13.80;99.90
20325;DHT22;10320;49.482;11.256;2022-10-31T09:33:30;14.00;99.90
20325;DHT22;10320;49.482;11.256;2022-10-31T09:35:58;14.10;99.90
20325;DHT22;10320;49.482;11.256;2022-10-31T09:38:24;14.20;99.90
20325;DHT22;10320;49.482;11.256;2022-10-31T09:44:37;14.40;99.90
20325;DHT22;10320;49.482;11.256;2022-10-31T09:47:09;14.60;99.90
20325;DHT22;10320;49.482;11.256;2022-10-31T09:52:23;14.80;99.90
20325;DHT22;10320;49.482;11.256;2022-10-31T09:54:57;14.90;99.90
20325;DHT22;10320;49.482;11.256;2022-10-31T09:57:33;15.00;99.90
20325;DHT22;10320;49.482;11.256;2022-10-31T09:59:59;15.00;99.90
20325;DHT22;10320;49.482;11.256;2022-10-31T10:05:02;15.30;99.90
20325;DHT22;10320;49.482;11.256;2022-10-31T10:10:10;15.60;99.90
20325;DHT22;10320;49.482;11.256;2022-10-31T10:15:37;15.90;99.90
20325;DHT22;10320;49.482;11.256;2022-10-31T10:18:27;16.00;99.90
20325;DHT22;10320;49.482;11.256;2022-10-31T10:26:22;16.50;99.90
20325;DHT22;10320;49.482;11.256;2022-10-31T10:28:54;16.70;99.90
20325;DHT22;10320;49.482;11.256;2022-10-31T10:31:28;16.80;99.90
20325;DHT22;10320;49.482;11.256;2022-10-31T10:34:02;17.00;99.90
20325;DHT22;10320;49.482;11.256;2022-10-31T10:39:41;17.30;99.90
20325;DHT22;10320;49.482;11.256;2022-10-31T10:42:13;17.50;99.90
20325;DHT22;10320;49.482;11.256;2022-10-31T10:44:58;17.70;99.90
20325;DHT22;10320;49.482;11.256;2022-10-31T10:47:46;17.90;99.90
20325;DHT22;10320;49.482;11.256;2022-10-31T10:50:20;18.00;99.90
20325;DHT22;10320;49.482;11.256;2022-10-31T10:52:49;18.10;99.90
20325;DHT22;10320;49.482;11.256;2022-10-31T10:58:03;18.30;99.90
20325;DHT22;10320;49.482;11.256;2022-10-31T11:00:41;18.40;99.90
20325;DHT22;10320;49.482;11.256;2022-10-31T11:03:08;18.50;99.90
20325;DHT22;10320;49.482;11.256;2022-10-31T11:05:41;18.70;99.90
20325;DHT22;10320;49.482;11.256;2022-10-31T11:08:11;18.80;99.90
20325;DHT22;10320;49.482;11.256;2022-10-31T11:11:03;18.90;99.90
20325;DHT22;10320;49.482;11.256;2022-10-31T11:13:31;19.10;99.90
20325;DHT22;10320;49.482;11.256;2022-10-31T11:16:07;19.20;99.90
20325;DHT22;10320;49.482;11.256;2022-10-31T11:18:45;19.30;99.90
20325;DHT22;10320;49.482;11.256;2022-10-31T11:21:24;19.40;99.90
20325;DHT22;10320;49.482;11.256;2022-10-31T11:24:23;19.40;99.90
20325;DHT22;10320;49.482;11.256;2022-10-31T11:26:48;19.70;99.90
20325;DHT22;10320;49.482;11.256;2022-10-31T11:29:23;19.80;99.90
20325;DHT22;10320;49.482;11.256;2022-10-31T11:31:54;19.90;99.90
20325;DHT22;10320;49.482;11.256;2022-10-31T11:34:35;20.10;99.90
20325;DHT22;10320;49.482;11.256;2022-10-31T11:37:14;20.20;99.90
20325;DHT22;10320;49.482;11.256;2022-10-31T11:39:43;20.40;99.90
20325;DHT22;10320;49.482;11.256;2022-10-31T11:42:09;20.60;99.90
20325;DHT22;10320;49.482;11.256;2022-10-31T11:44:35;20.70;99.90
20325;DHT22;10320;49.482;11.256;2022-10-31T11:47:03;20.80;99.90
20325;DHT22;10320;49.482;11.256;2022-10-31T11:49:34;20.90;99.90
20325;DHT22;10320;49.482;11.256;2022-10-31T11:52:06;21.00;99.90
20325;DHT22;10320;49.482;11.256;2022-10-31T11:57:50;21.20;99.90
20325;DHT22;10320;49.482;11.256;2022-10-31T12:03:23;21.40;99.90
20325;DHT22;10320;49.482;11.256;2022-10-31T12:06:07;21.50;99.90
20325;DHT22;10320;49.482;11.256;2022-10-31T12:08:35;21.60;99.90
20325;DHT22;10320;49.482;11.256;2022-10-31T12:11:34;21.60;99.90
20325;DHT22;10320;49.482;11.256;2022-10-31T12:14:18;21.70;99.90
20325;DHT22;10320;49.482;11.256;2022-10-31T12:17:03;21.70;99.90
20325;DHT22;10320;49.482;11.256;2022-10-31T12:19:46;21.80;99.90
20325;DHT22;10320;49.482;11.256;2022-10-31T12:25:21;22.00;99.90
20325;DHT22;10320;49.482;11.256;2022-10-31T12:30:50;22.00;99.90
20325;DHT22;10320;49.482;11.256;2022-10-31T12:39:35;22.20;99.90
20325;DHT22;10320;49.482;11.256;2022-10-31T12:45:12;22.20;99.90
20325;DHT22;10320;49.482;11.256;2022-10-31T12:53:42;22.30;99.90
20325;DHT22;10320;49.482;11.256;2022-10-31T12:59:11;22.30;99.90
20325;DHT22;10320;49.482;11.256;2022-10-31T13:01:54;22.30;99.90
20325;DHT22;10320;49.482;11.256;2022-10-31T13:07:46;22.30;99.90
20325;DHT22;10320;49.482;11.256;2022-10-31T13:10:39;22.20;99.90
20325;DHT22;10320;49.482;11.256;2022-10-31T13:15:51;22.30;99.90
20325;DHT22;10320;49.482;11.256;2022-10-31T13:18:40;22.10;99.90
20325;DHT22;10320;49.482;11.256;2022-10-31T13:21:12;22.20;99.90
20325;DHT22;10320;49.482;11.256;2022-10-31T13:23:41;22.10;99.90
20325;DHT22;10320;49.482;11.256;2022-10-31T13:29:00;22.00;99.90
20325;DHT22;10320;49.482;11.256;2022-10-31T13:31:29;21.80;99.90
20325;DHT22;10320;49.482;11.256;2022-10-31T13:34:00;21.80;99.90
20325;DHT22;10320;49.482;11.256;2022-10-31T13:36:39;21.60;99.90
20325;DHT22;10320;49.482;11.256;2022-10-31T13:42:40;21.40;99.90
20325;DHT22;10320;49.482;11.256;2022-10-31T13:45:15;21.30;99.90
20325;DHT22;10320;49.482;11.256;2022-10-31T13:47:42;21.10;99.90
20325;DHT22;10320;49.482;11.256;2022-10-31T13:50:25;21.10;99.90
20325;DHT22;10320;49.482;11.256;2022-10-31T13:52:51;21.00;99.90
20325;DHT22;10320;49.482;11.256;2022-10-31T13:55:43;20.90;99.90
20325;DHT22;10320;49.482;11.256;2022-10-31T13:58:29;20.70;99.90
20325;DHT22;10320;49.482;11.256;2022-10-31T14:01:21;20.60;99.90
20325;DHT22;10320;49.482;11.256;2022-10-31T14:04:16;20.50;99.90
20325;DHT22;10320;49.482;11.256;2022-10-31T14:06:47;20.40;99.90
20325;DHT22;10320;49.482;11.256;2022-10-31T14:09:28;20.40;99.90
20325;DHT22;10320;49.482;11.256;2022-10-31T14:11:55;20.50;99.90
20325;DHT22;10320;49.482;11.256;2022-10-31T14:14:23;20.50;99.90
20325;DHT22;10320;49.482;11.256;2022-10-31T14:16:56;20.50;99.90
20325;DHT22;10320;49.482;11.256;2022-10-31T14:19:23;20.50;99.90
20325;DHT22;10320;49.482;11.256;2022-10-31T14:21:50;20.50;99.90
20325;DHT22;10320;49.482;11.256;2022-10-31T14:29:46;20.40;99.90
20325;DHT22;10320;49.482;11.256;2022-10-31T14:32:18;20.30;99.90
20325;DHT22;10320;49.482;11.256;2022-10-31T14:34:55;20.20;99.90
